createdAt,value
2023-05-08T00:00:06.140Z,35.10
2023-05-08T00:01:06.139Z,35.10
2023-05-08T00:02:06.094Z,35.09
2023-05-08T00:03:06.210Z,35.09
2023-05-08T00:04:06.598Z,35.09
2023-05-08T00:05:06.189Z,35.11
2023-05-08T00:06:06.534Z,35.11
2023-05-08T00:07:06.140Z,35.12
2023-05-08T00:08:06.078Z,35.12
2023-05-08T00:09:06.098Z,35.12
2023-05-08T00:10:06.117Z,35.09
2023-05-08T00:11:06.108Z,35.10
2023-05-08T00:12:06.060Z,35.10
2023-05-08T00:13:06.120Z,35.10
2023-05-08T00:14:06.070Z,35.12
2023-05-08T00:15:06.068Z,35.10
2023-05-08T00:16:06.107Z,35.11
2023-05-08T00:17:06.189Z,35.08
2023-05-08T00:18:06.136Z,35.11
2023-05-08T00:19:06.074Z,35.11
2023-05-08T00:20:06.066Z,35.11
2023-05-08T00:21:06.062Z,35.11
2023-05-08T00:22:06.030Z,35.12
2023-05-08T00:23:06.059Z,35.10
2023-05-08T00:24:06.088Z,35.12
2023-05-08T00:25:06.031Z,35.12
2023-05-08T00:26:06.507Z,35.09
2023-05-08T00:27:06.043Z,35.11
2023-05-08T00:28:06.048Z,35.12
2023-05-08T00:29:06.910Z,35.12
2023-05-08T00:30:06.059Z,35.11
2023-05-08T00:31:06.091Z,35.12
2023-05-08T00:32:06.077Z,35.11
2023-05-08T00:33:06.076Z,35.13
2023-05-08T00:34:06.062Z,35.14
2023-05-08T00:35:06.045Z,35.14
2023-05-08T00:36:06.075Z,35.13
2023-05-08T00:37:06.046Z,35.14
2023-05-08T00:38:06.012Z,35.15
2023-05-08T00:39:06.041Z,35.12
2023-05-08T00:40:06.047Z,35.13
2023-05-08T00:41:06.474Z,35.14
2023-05-08T00:42:06.002Z,35.13
2023-05-08T00:43:06.052Z,35.15
2023-05-08T00:44:06.022Z,35.13
2023-05-08T00:45:06.021Z,35.15
2023-05-08T00:46:06.074Z,35.13
2023-05-08T00:47:06.021Z,35.16
2023-05-08T00:48:06.014Z,35.13
2023-05-08T00:49:06.031Z,35.12
2023-05-08T00:50:06.056Z,35.13
2023-05-08T00:51:07.041Z,35.14
2023-05-08T00:52:06.033Z,35.15
2023-05-08T00:53:06.033Z,35.14
2023-05-08T00:54:06.039Z,35.16
2023-05-08T00:55:06.032Z,35.16
2023-05-08T00:56:06.054Z,35.15
2023-05-08T00:57:06.061Z,35.16
2023-05-08T00:58:06.013Z,35.14
2023-05-08T00:59:06.043Z,35.17
2023-05-08T01:00:05.995Z,35.15
2023-05-08T01:01:06.072Z,35.16
2023-05-08T01:02:06.046Z,35.17
2023-05-08T01:03:06.033Z,35.15
2023-05-08T01:04:06.005Z,35.17
2023-05-08T01:05:06.002Z,35.16
2023-05-08T01:06:06.008Z,35.17
2023-05-08T01:07:06.011Z,35.17
2023-05-08T01:08:06.022Z,35.18
2023-05-08T01:09:06.029Z,35.15
2023-05-08T01:10:06.047Z,35.17
2023-05-08T01:11:06.009Z,35.18
2023-05-08T01:12:06.024Z,35.17
2023-05-08T01:13:06.091Z,35.15
2023-05-08T01:14:06.019Z,35.17
2023-05-08T01:15:06.045Z,35.17
2023-05-08T01:16:06.087Z,35.16
2023-05-08T01:17:06.001Z,35.17
2023-05-08T01:18:06.004Z,35.19
2023-05-08T01:19:05.979Z,35.18
2023-05-08T01:20:05.991Z,35.19
2023-05-08T01:21:05.978Z,35.19
2023-05-08T01:22:06.011Z,35.19
2023-05-08T01:23:06.016Z,35.16
2023-05-08T01:24:05.982Z,35.20
2023-05-08T01:25:06.019Z,35.20
2023-05-08T01:26:06.002Z,35.21
2023-05-08T01:27:06.011Z,35.19
2023-05-08T01:28:05.981Z,35.19
2023-05-08T01:29:05.976Z,35.20
2023-05-08T01:30:06.002Z,35.20
2023-05-08T01:31:06.019Z,35.19
2023-05-08T01:32:06.020Z,35.20
2023-05-08T01:33:06.130Z,35.20
2023-05-08T01:34:06.102Z,35.18
2023-05-08T01:35:06.013Z,35.21
2023-05-08T01:36:06.025Z,35.19
2023-05-08T01:37:06.575Z,35.21
2023-05-08T01:38:06.061Z,35.21
2023-05-08T01:39:06.042Z,35.19
2023-05-08T01:40:06.051Z,35.20
2023-05-08T01:41:06.082Z,35.21
2023-05-08T01:42:06.083Z,35.22
2023-05-08T01:43:06.079Z,35.22
2023-05-08T01:44:06.062Z,35.22
2023-05-08T01:45:06.061Z,35.22
2023-05-08T01:46:06.056Z,35.22
2023-05-08T01:47:06.655Z,35.22
2023-05-08T01:48:06.095Z,35.23
2023-05-08T01:49:06.076Z,35.23
2023-05-08T01:50:06.156Z,35.22
2023-05-08T01:51:06.092Z,35.24
2023-05-08T01:52:06.114Z,35.24
2023-05-08T01:53:06.075Z,35.23
2023-05-08T01:54:08.668Z,35.24
2023-05-08T01:55:06.103Z,35.24
2023-05-08T01:56:06.136Z,35.25
2023-05-08T01:57:06.080Z,35.23
2023-05-08T01:58:06.086Z,35.22
2023-05-08T01:59:06.091Z,35.24
2023-05-08T02:00:06.067Z,35.22
2023-05-08T02:01:06.161Z,35.26
2023-05-08T02:02:06.571Z,35.24
2023-05-08T02:03:06.136Z,35.24
2023-05-08T02:04:06.092Z,35.25
2023-05-08T02:05:06.050Z,35.27
2023-05-08T02:06:06.029Z,35.24
2023-05-08T02:07:06.039Z,35.25
2023-05-08T02:08:06.010Z,35.24
2023-05-08T02:09:06.023Z,35.26
2023-05-08T02:10:05.978Z,35.26
2023-05-08T02:11:06.116Z,35.27
2023-05-08T02:12:06.006Z,35.25
2023-05-08T02:13:06.046Z,35.24
2023-05-08T02:14:05.982Z,35.27
2023-05-08T02:15:06.031Z,35.26
2023-05-08T02:16:05.982Z,35.26
2023-05-08T02:17:05.999Z,35.23
2023-05-08T02:18:06.019Z,35.26
2023-05-08T02:19:05.962Z,35.27
2023-05-08T02:20:05.956Z,35.26
2023-05-08T02:21:05.947Z,35.27
2023-05-08T02:22:05.940Z,35.28
2023-05-08T02:23:05.922Z,35.27
2023-05-08T02:24:05.928Z,35.28
2023-05-08T02:25:05.923Z,35.26
2023-05-08T02:26:05.887Z,35.28
2023-05-08T02:27:05.901Z,35.27
2023-05-08T02:28:05.928Z,35.28
2023-05-08T02:29:05.878Z,35.28
2023-05-08T02:30:05.897Z,35.31
2023-05-08T02:31:05.863Z,35.28
2023-05-08T02:32:05.905Z,35.31
2023-05-08T02:33:05.894Z,35.29
2023-05-08T02:34:05.855Z,35.30
2023-05-08T02:35:05.824Z,35.29
2023-05-08T02:36:05.828Z,35.29
2023-05-08T02:37:05.828Z,35.30
2023-05-08T02:38:05.879Z,35.30
2023-05-08T02:39:05.834Z,35.29
2023-05-08T02:40:05.825Z,35.31
2023-05-08T02:41:05.799Z,35.31
2023-05-08T02:42:05.814Z,35.29
2023-05-08T02:43:05.804Z,35.31
2023-05-08T02:44:05.821Z,35.30
2023-05-08T02:45:05.798Z,35.29
2023-05-08T02:46:05.802Z,35.32
2023-05-08T02:47:07.175Z,35.29
2023-05-08T02:48:05.944Z,35.31
2023-05-08T02:49:05.739Z,35.31
2023-05-08T02:50:05.743Z,35.31
2023-05-08T02:51:05.758Z,35.31
2023-05-08T02:52:05.727Z,35.31
2023-05-08T02:53:05.709Z,35.32
2023-05-08T02:54:05.729Z,35.33
2023-05-08T02:55:05.723Z,35.30
2023-05-08T02:56:05.746Z,35.34
2023-05-08T02:57:05.689Z,35.32
2023-05-08T02:58:05.702Z,35.32
2023-05-08T02:59:05.701Z,35.31
2023-05-08T03:00:05.652Z,35.33
2023-05-08T03:01:05.733Z,35.35
2023-05-08T03:02:05.684Z,35.32
2023-05-08T03:03:05.745Z,35.33
2023-05-08T03:04:05.640Z,35.32
2023-05-08T03:05:05.656Z,35.34
2023-05-08T03:06:05.622Z,35.35
2023-05-08T03:07:05.662Z,35.34
2023-05-08T03:08:05.634Z,35.34
2023-05-08T03:09:05.625Z,35.34
2023-05-08T03:10:05.639Z,35.35
2023-05-08T03:11:05.619Z,35.31
2023-05-08T03:12:05.629Z,35.35
2023-05-08T03:13:05.647Z,35.33
2023-05-08T03:14:05.598Z,35.35
2023-05-08T03:15:05.621Z,35.35
2023-05-08T03:16:05.622Z,35.35
2023-05-08T03:17:05.575Z,35.35
2023-05-08T03:18:05.551Z,35.35
2023-05-08T03:19:05.538Z,35.35
2023-05-08T03:20:05.593Z,35.36
2023-05-08T03:21:05.553Z,35.36
2023-05-08T03:22:05.552Z,35.36
2023-05-08T03:23:05.560Z,35.35
2023-05-08T03:24:05.567Z,35.35
2023-05-08T03:25:05.526Z,35.36
2023-05-08T03:26:05.521Z,35.38
2023-05-08T03:27:05.511Z,35.37
2023-05-08T03:28:05.499Z,35.37
2023-05-08T03:29:05.484Z,35.36
2023-05-08T03:30:05.511Z,35.36
2023-05-08T03:31:05.591Z,35.35
2023-05-08T03:32:05.540Z,35.37
2023-05-08T03:33:05.659Z,35.38
2023-05-08T03:34:05.580Z,35.37
2023-05-08T03:35:05.553Z,35.34
2023-05-08T03:36:05.614Z,35.39
2023-05-08T03:37:06.048Z,35.38
2023-05-08T03:38:05.664Z,35.37
2023-05-08T03:39:05.645Z,35.38
2023-05-08T03:40:05.644Z,35.36
2023-05-08T03:41:05.685Z,35.38
2023-05-08T03:42:05.707Z,35.38
2023-05-08T03:43:05.690Z,35.39
2023-05-08T03:44:05.706Z,35.36
2023-05-08T03:45:05.707Z,35.38
2023-05-08T03:46:05.710Z,35.37
2023-05-08T03:47:05.865Z,35.38
2023-05-08T03:48:05.817Z,35.41
2023-05-08T03:49:05.764Z,35.39
2023-05-08T03:50:05.773Z,35.37
2023-05-08T03:51:05.809Z,35.39
2023-05-08T03:52:06.068Z,35.39
2023-05-08T03:53:05.824Z,35.41
2023-05-08T03:54:05.884Z,35.40
2023-05-08T03:55:05.918Z,35.41
2023-05-08T03:56:05.889Z,35.41
2023-05-08T03:57:05.895Z,35.39
2023-05-08T03:58:05.894Z,35.40
2023-05-08T03:59:05.938Z,35.41
2023-05-08T04:00:05.984Z,35.40
2023-05-08T04:01:05.958Z,35.41
2023-05-08T04:02:06.067Z,35.40
2023-05-08T04:03:06.056Z,35.42
2023-05-08T04:04:06.021Z,35.42
2023-05-08T04:05:06.004Z,35.41
2023-05-08T04:06:06.027Z,35.41
2023-05-08T04:07:06.047Z,35.43
2023-05-08T04:08:06.118Z,35.42
2023-05-08T04:09:06.079Z,35.41
2023-05-08T04:10:06.082Z,35.41
2023-05-08T04:11:06.114Z,35.42
2023-05-08T04:12:06.183Z,35.41
2023-05-08T04:13:06.292Z,35.43
2023-05-08T04:14:06.201Z,35.42
2023-05-08T04:15:06.225Z,35.44
2023-05-08T04:16:06.227Z,35.43
2023-05-08T04:17:06.291Z,35.43
2023-05-08T04:18:06.342Z,35.45
2023-05-08T04:19:06.314Z,35.43
2023-05-08T04:20:06.327Z,35.44
2023-05-08T04:21:06.383Z,35.44
2023-05-08T04:22:06.401Z,35.45
2023-05-08T04:23:06.502Z,35.42
2023-05-08T04:24:06.434Z,35.45
2023-05-08T04:25:06.437Z,35.42
2023-05-08T04:26:06.453Z,35.46
2023-05-08T04:27:06.488Z,35.44
2023-05-08T04:28:06.488Z,35.46
2023-05-08T04:29:06.500Z,35.46
2023-05-08T04:30:06.567Z,35.44
2023-05-08T04:31:06.544Z,35.44
2023-05-08T04:32:06.773Z,35.45
2023-05-08T04:33:06.611Z,35.46
2023-05-08T04:34:06.581Z,35.46
2023-05-08T04:35:06.639Z,35.46
2023-05-08T04:36:06.649Z,35.46
2023-05-08T04:37:06.652Z,35.47
2023-05-08T04:38:06.662Z,35.48
2023-05-08T04:39:06.663Z,35.47
2023-05-08T04:40:06.710Z,35.46
2023-05-08T04:41:06.747Z,35.49
2023-05-08T04:42:07.107Z,35.46
2023-05-08T04:43:06.732Z,35.47
2023-05-08T04:44:06.760Z,35.48
2023-05-08T04:45:06.790Z,35.48
2023-05-08T04:46:07.622Z,35.48
2023-05-08T04:47:06.826Z,35.48
2023-05-08T04:48:06.918Z,35.47
2023-05-08T04:49:06.889Z,35.48
2023-05-08T04:50:06.883Z,35.51
2023-05-08T04:51:06.933Z,35.50
2023-05-08T04:52:06.943Z,35.48
2023-05-08T04:53:06.991Z,35.50
2023-05-08T04:54:06.988Z,35.51
2023-05-08T04:55:07.007Z,35.64
2023-05-08T04:56:07.026Z,35.71
2023-05-08T04:57:07.083Z,35.77
2023-05-08T04:58:07.121Z,35.90
2023-05-08T04:59:07.115Z,35.92
2023-05-08T05:00:07.166Z,36.15
2023-05-08T05:01:07.237Z,36.10
2023-05-08T05:02:07.311Z,36.24
2023-05-08T05:03:07.415Z,36.49
2023-05-08T05:04:07.419Z,36.58
2023-05-08T05:05:07.336Z,36.49
2023-05-08T05:06:07.369Z,36.57
2023-05-08T05:07:07.611Z,36.78
2023-05-08T05:08:07.522Z,37.11
2023-05-08T05:09:07.444Z,37.18
2023-05-08T05:10:07.516Z,37.12
2023-05-08T05:11:07.534Z,37.12
2023-05-08T05:12:07.559Z,37.35
2023-05-08T05:13:07.749Z,37.26
2023-05-08T05:14:07.635Z,37.16
2023-05-08T05:15:07.651Z,37.32
2023-05-08T05:16:07.706Z,37.21
2023-05-08T05:17:07.764Z,37.39
2023-05-08T05:18:07.864Z,37.63
2023-05-08T05:19:07.797Z,37.95
2023-05-08T05:20:07.830Z,38.40
2023-05-08T05:21:07.897Z,39.02
2023-05-08T05:22:08.120Z,38.86
2023-05-08T05:23:07.929Z,38.81
2023-05-08T05:24:07.993Z,40.57
2023-05-08T05:25:08.059Z,39.67
2023-05-08T05:26:08.036Z,39.06
2023-05-08T05:27:08.076Z,40.05
2023-05-08T05:28:08.086Z,39.19
2023-05-08T05:29:08.143Z,40.42
2023-05-08T05:30:08.186Z,39.80
2023-05-08T05:31:08.213Z,40.71
2023-05-08T05:32:08.182Z,40.48
2023-05-08T05:33:08.213Z,40.39
2023-05-08T05:34:08.247Z,40.91
2023-05-08T05:35:08.237Z,40.87
2023-05-08T05:36:08.270Z,41.13
2023-05-08T05:37:08.276Z,41.22
2023-05-08T05:38:08.434Z,40.97
2023-05-08T05:39:08.342Z,41.03
2023-05-08T05:40:08.381Z,41.24
2023-05-08T05:41:08.406Z,41.16
2023-05-08T05:42:08.475Z,41.19
2023-05-08T05:43:08.516Z,41.26
2023-05-08T05:44:08.502Z,41.13
2023-05-08T05:45:08.482Z,41.31
2023-05-08T05:46:08.478Z,42.20
2023-05-08T05:47:08.691Z,41.91
2023-05-08T05:48:08.610Z,43.05
2023-05-08T05:49:08.606Z,42.38
2023-05-08T05:50:08.620Z,42.04
2023-05-08T05:51:08.638Z,43.02
2023-05-08T05:52:09.113Z,42.76
2023-05-08T05:53:08.773Z,43.71
2023-05-08T05:54:08.744Z,42.88
2023-05-08T05:55:08.741Z,43.18
2023-05-08T05:56:08.762Z,42.30
2023-05-08T05:57:08.804Z,42.14
2023-05-08T05:58:09.015Z,42.04
2023-05-08T05:59:08.858Z,42.10
2023-05-08T06:00:08.952Z,42.23
2023-05-08T06:01:08.921Z,43.26
2023-05-08T06:02:08.956Z,42.09
2023-05-08T06:03:09.139Z,41.98
2023-05-08T06:04:09.101Z,41.96
2023-05-08T06:05:08.981Z,42.16
2023-05-08T06:06:09.106Z,42.33
2023-05-08T06:07:09.071Z,42.06
2023-05-08T06:08:09.102Z,42.00
2023-05-08T06:09:09.145Z,42.03
2023-05-08T06:10:09.156Z,42.03
2023-05-08T06:11:09.174Z,42.07
2023-05-08T06:12:09.209Z,42.10
2023-05-08T06:13:09.324Z,42.01
2023-05-08T06:14:09.270Z,41.93
2023-05-08T06:15:09.309Z,42.14
2023-05-08T06:16:09.346Z,42.08
2023-05-08T06:17:09.432Z,42.01
2023-05-08T06:18:09.515Z,41.97
2023-05-08T06:19:09.470Z,41.95
2023-05-08T06:20:09.539Z,42.14
2023-05-08T06:21:09.545Z,42.00
2023-05-08T06:22:09.695Z,42.06
2023-05-08T06:23:09.739Z,42.06
2023-05-08T06:24:09.635Z,41.95
2023-05-08T06:25:09.857Z,42.17
2023-05-08T06:26:09.732Z,42.02
2023-05-08T06:27:09.796Z,42.19
2023-05-08T06:28:09.796Z,42.04
2023-05-08T06:29:09.871Z,41.98
2023-05-08T06:30:09.926Z,42.08
2023-05-08T06:31:09.971Z,42.25
2023-05-08T06:32:10.143Z,42.17
2023-05-08T06:33:10.058Z,42.02
2023-05-08T06:34:10.038Z,41.98
2023-05-08T06:35:10.264Z,42.02
2023-05-08T06:36:10.120Z,42.04
2023-05-08T06:37:10.662Z,42.08
2023-05-08T06:38:10.215Z,42.01
2023-05-08T06:39:10.283Z,42.06
2023-05-08T06:40:17.309Z,42.15
2023-05-08T06:41:10.254Z,42.07
2023-05-08T06:42:10.301Z,42.04
2023-05-08T06:43:10.655Z,42.12
2023-05-08T06:44:10.239Z,42.24
2023-05-08T06:45:10.469Z,42.10
2023-05-08T06:46:10.240Z,42.11
2023-05-08T06:47:10.244Z,42.16
2023-05-08T06:48:10.681Z,42.24
2023-05-08T06:49:10.213Z,42.22
2023-05-08T06:50:10.204Z,42.23
2023-05-08T06:51:10.214Z,42.19
2023-05-08T06:52:10.202Z,42.48
2023-05-08T06:53:10.691Z,43.16
2023-05-08T06:54:10.315Z,42.77
2023-05-08T06:55:10.179Z,42.85
2023-05-08T06:56:10.169Z,43.30
2023-05-08T06:57:11.104Z,42.48
2023-05-08T06:58:10.650Z,42.36
2023-05-08T06:59:10.151Z,42.55
2023-05-08T07:00:10.235Z,42.48
2023-05-08T07:01:10.229Z,42.51
2023-05-08T07:02:10.337Z,42.83
2023-05-08T07:03:10.690Z,43.45
2023-05-08T07:04:10.295Z,43.55
2023-05-08T07:05:10.439Z,43.63
2023-05-08T07:06:10.207Z,43.86
2023-05-08T07:07:10.201Z,44.53
2023-05-08T07:08:10.219Z,44.44
2023-05-08T07:09:10.254Z,44.41
2023-05-08T07:10:10.321Z,44.80
2023-05-08T07:11:10.406Z,44.63
2023-05-08T07:12:10.454Z,44.58
2023-05-08T07:13:10.567Z,44.96
2023-05-08T07:14:10.534Z,45.00
2023-05-08T07:15:21.834Z,44.92
2023-05-08T07:16:11.590Z,44.97
2023-05-08T07:17:10.598Z,45.29
2023-05-08T07:18:10.664Z,45.02
2023-05-08T07:19:10.572Z,45.31
2023-05-08T07:20:10.542Z,45.21
2023-05-08T07:21:10.566Z,45.23
2023-05-08T07:22:10.557Z,45.73
2023-05-08T07:23:10.655Z,45.66
2023-05-08T07:24:10.525Z,45.53
2023-05-08T07:25:10.709Z,45.54
2023-05-08T07:26:10.522Z,45.65
2023-05-08T07:27:10.519Z,45.56
2023-05-08T07:28:10.487Z,45.57
2023-05-08T07:29:10.623Z,45.31
2023-05-08T07:30:10.549Z,45.85
2023-05-08T07:31:10.628Z,45.55
2023-05-08T07:32:10.568Z,45.97
2023-05-08T07:33:10.588Z,45.82
2023-05-08T07:34:10.600Z,45.77
2023-05-08T07:35:11.306Z,45.90
2023-05-08T07:36:10.611Z,45.98
2023-05-08T07:37:10.633Z,45.69
2023-05-08T07:38:10.624Z,45.72
2023-05-08T07:39:10.628Z,45.45
2023-05-08T07:40:10.636Z,45.57
2023-05-08T07:41:10.639Z,45.66
2023-05-08T07:42:10.763Z,45.42
2023-05-08T07:43:10.631Z,45.50
2023-05-08T07:44:10.652Z,45.44
2023-05-08T07:45:10.940Z,45.50
2023-05-08T07:46:10.668Z,45.59
2023-05-08T07:47:10.724Z,45.35
2023-05-08T07:48:10.734Z,46.08
2023-05-08T07:49:10.728Z,46.38
2023-05-08T07:50:10.664Z,46.21
2023-05-08T07:51:10.740Z,46.49
2023-05-08T07:52:10.707Z,46.04
2023-05-08T07:53:10.710Z,46.51
2023-05-08T07:54:10.728Z,45.79
2023-05-08T07:55:10.831Z,45.50
2023-05-08T07:56:10.718Z,45.95
2023-05-08T07:57:10.721Z,45.40
2023-05-08T07:58:10.806Z,44.97
2023-05-08T07:59:10.761Z,44.78
2023-05-08T08:00:10.763Z,44.56
2023-05-08T08:01:10.777Z,44.42
2023-05-08T08:02:10.850Z,44.23
2023-05-08T08:03:10.943Z,44.26
2023-05-08T08:04:12.258Z,44.47
2023-05-08T08:05:11.377Z,44.30
2023-05-08T08:06:11.069Z,44.37
2023-05-08T08:07:11.051Z,44.23
2023-05-08T08:08:11.100Z,44.11
2023-05-08T08:09:11.096Z,44.05
2023-05-08T08:10:11.044Z,44.84
2023-05-08T08:11:11.061Z,45.14
2023-05-08T08:12:11.152Z,44.79
2023-05-08T08:13:11.183Z,44.87
2023-05-08T08:14:11.166Z,45.49
2023-05-08T08:15:11.459Z,45.23
2023-05-08T08:16:11.169Z,44.90
2023-05-08T08:17:11.287Z,45.08
2023-05-08T08:18:11.280Z,44.80
2023-05-08T08:19:11.122Z,44.86
2023-05-08T08:20:11.108Z,45.04
2023-05-08T08:21:11.108Z,45.06
2023-05-08T08:22:11.124Z,44.75
2023-05-08T08:23:11.206Z,46.65
2023-05-08T08:24:11.115Z,45.90
2023-05-08T08:25:11.271Z,45.73
2023-05-08T08:26:11.110Z,45.29
2023-05-08T08:27:11.115Z,45.34
2023-05-08T08:28:11.112Z,45.43
2023-05-08T08:29:11.161Z,45.42
2023-05-08T08:30:17.561Z,45.45
2023-05-08T08:31:12.222Z,45.07
2023-05-08T08:32:11.182Z,44.86
2023-05-08T08:33:11.196Z,44.78
2023-05-08T08:34:11.171Z,44.68
2023-05-08T08:35:11.412Z,45.29
2023-05-08T08:36:11.168Z,46.14
2023-05-08T08:37:12.678Z,45.89
2023-05-08T08:38:11.220Z,45.77
2023-05-08T08:39:12.984Z,45.34
2023-05-08T08:40:11.094Z,44.96
2023-05-08T08:41:11.087Z,45.02
2023-05-08T08:42:11.127Z,45.41
2023-05-08T08:43:11.073Z,45.36
2023-05-08T08:44:11.100Z,45.34
2023-05-08T08:45:11.374Z,45.43
2023-05-08T08:46:11.297Z,45.53
2023-05-08T08:47:11.086Z,45.44
2023-05-08T08:48:11.248Z,45.59
2023-05-08T08:49:11.059Z,45.57
2023-05-08T08:50:14.222Z,45.66
2023-05-08T08:51:11.031Z,45.75
2023-05-08T08:52:11.025Z,45.61
2023-05-08T08:53:11.058Z,45.71
2023-05-08T08:54:11.021Z,45.46
2023-05-08T08:55:11.123Z,45.28
2023-05-08T08:56:11.019Z,45.30
2023-05-08T08:57:11.024Z,45.45
2023-05-08T08:58:10.995Z,45.10
2023-05-08T08:59:11.016Z,44.90
2023-05-08T09:00:11.017Z,44.98
2023-05-08T09:01:10.973Z,45.01
2023-05-08T09:02:11.196Z,44.82
2023-05-08T09:03:11.288Z,44.87
2023-05-08T09:04:11.068Z,44.77
2023-05-08T09:05:11.157Z,44.68
2023-05-08T09:06:10.937Z,44.42
2023-05-08T09:07:10.947Z,44.66
2023-05-08T09:08:11.238Z,44.93
2023-05-08T09:09:10.953Z,44.60
2023-05-08T09:10:10.956Z,44.57
2023-05-08T09:11:11.022Z,44.63
2023-05-08T09:12:10.928Z,44.96
2023-05-08T09:13:12.060Z,45.33
2023-05-08T09:14:10.921Z,44.99
2023-05-08T09:15:11.032Z,44.89
2023-05-08T09:16:10.998Z,44.71
2023-05-08T09:17:10.910Z,44.64
2023-05-08T09:18:11.096Z,45.43
2023-05-08T09:19:10.910Z,45.13
2023-05-08T09:20:11.294Z,45.05
2023-05-08T09:21:10.885Z,44.93
2023-05-08T09:22:10.880Z,45.54
2023-05-08T09:23:10.906Z,45.86
2023-05-08T09:24:10.865Z,46.27
2023-05-08T09:25:10.934Z,46.30
2023-05-08T09:26:10.886Z,46.76
2023-05-08T09:27:10.920Z,45.87
2023-05-08T09:28:11.206Z,45.44
2023-05-08T09:29:11.035Z,45.20
2023-05-08T09:30:11.070Z,45.01
2023-05-08T09:31:11.197Z,44.96
2023-05-08T09:32:11.249Z,45.36
2023-05-08T09:33:11.293Z,45.28
2023-05-08T09:34:11.500Z,45.19
2023-05-08T09:35:11.602Z,45.05
2023-05-08T09:36:11.451Z,44.79
2023-05-08T09:37:11.500Z,45.21
2023-05-08T09:38:11.747Z,45.22
2023-05-08T09:39:11.620Z,44.89
2023-05-08T09:40:11.688Z,44.72
2023-05-08T09:41:11.793Z,44.71
2023-05-08T09:42:11.807Z,44.67
2023-05-08T09:43:12.191Z,44.90
2023-05-08T09:44:11.902Z,44.73
2023-05-08T09:45:12.230Z,44.67
2023-05-08T09:46:12.063Z,46.47
2023-05-08T09:47:12.071Z,45.22
2023-05-08T09:48:12.192Z,44.98
2023-05-08T09:49:12.722Z,45.41
2023-05-08T09:50:12.717Z,45.20
2023-05-08T09:51:12.257Z,44.94
2023-05-08T09:52:12.313Z,44.73
2023-05-08T09:53:12.694Z,44.67
2023-05-08T09:54:12.427Z,44.48
2023-05-08T09:55:12.471Z,44.43
2023-05-08T09:56:12.555Z,44.41
2023-05-08T09:57:12.594Z,44.24
2023-05-08T09:58:12.693Z,44.17
2023-05-08T09:59:12.681Z,44.13
2023-05-08T10:00:13.262Z,44.06
2023-05-08T10:01:12.882Z,44.05
2023-05-08T10:02:12.948Z,44.03
2023-05-08T10:03:13.042Z,44.01
2023-05-08T10:04:13.082Z,43.97
2023-05-08T10:05:13.842Z,43.97
2023-05-08T10:06:13.288Z,43.90
2023-05-08T10:07:13.129Z,43.92
2023-05-08T10:08:13.136Z,43.88
2023-05-08T10:09:13.172Z,43.86
2023-05-08T10:10:13.271Z,43.84
2023-05-08T10:11:13.157Z,43.88
2023-05-08T10:12:13.123Z,43.86
2023-05-08T10:13:13.143Z,43.86
2023-05-08T10:14:13.131Z,43.80
2023-05-08T10:15:13.129Z,43.82
2023-05-08T10:16:13.154Z,43.83
2023-05-08T10:17:13.241Z,43.80
2023-05-08T10:18:13.177Z,43.78
2023-05-08T10:19:13.094Z,43.82
2023-05-08T10:20:13.200Z,43.77
2023-05-08T10:21:13.127Z,43.79
2023-05-08T10:22:13.208Z,43.86
2023-05-08T10:23:13.126Z,43.87
2023-05-08T10:24:13.124Z,43.84
2023-05-08T10:25:13.214Z,43.82
2023-05-08T10:26:13.079Z,43.83
2023-05-08T10:27:13.125Z,43.76
2023-05-08T10:28:13.077Z,43.70
2023-05-08T10:29:13.090Z,43.81
2023-05-08T10:30:13.272Z,44.09
2023-05-08T10:31:13.216Z,43.86
2023-05-08T10:32:13.112Z,43.78
2023-05-08T10:33:13.272Z,43.74
2023-05-08T10:34:13.110Z,43.77
2023-05-08T10:35:13.131Z,43.74
2023-05-08T10:36:13.070Z,43.79
2023-05-08T10:37:13.110Z,43.74
2023-05-08T10:38:13.343Z,43.80
2023-05-08T10:39:13.081Z,43.88
2023-05-08T10:40:13.212Z,43.95
2023-05-08T10:41:13.122Z,43.93
2023-05-08T10:42:13.119Z,44.06
2023-05-08T10:43:13.124Z,44.05
2023-05-08T10:44:13.108Z,43.97
2023-05-08T10:45:13.192Z,43.97
2023-05-08T10:46:13.167Z,43.89
2023-05-08T10:47:13.194Z,43.86
2023-05-08T10:48:13.284Z,43.83
2023-05-08T10:49:13.193Z,43.83
2023-05-08T10:50:13.409Z,43.78
2023-05-08T10:51:13.180Z,43.75
2023-05-08T10:52:13.192Z,43.72
2023-05-08T10:53:13.240Z,43.69
2023-05-08T10:54:13.198Z,43.63
2023-05-08T10:55:13.228Z,43.58
2023-05-08T10:56:13.221Z,43.52
2023-05-08T10:57:13.235Z,43.48
2023-05-08T10:58:13.236Z,43.45
2023-05-08T10:59:13.210Z,43.42
2023-05-08T11:00:13.342Z,43.35
2023-05-08T11:01:13.277Z,43.28
2023-05-08T11:02:13.256Z,43.23
2023-05-08T11:03:27.354Z,43.19
2023-05-08T11:04:14.317Z,43.16
2023-05-08T11:05:13.209Z,43.07
2023-05-08T11:06:13.206Z,43.03
2023-05-08T11:07:13.226Z,42.99
2023-05-08T11:08:13.217Z,43.01
2023-05-08T11:09:13.167Z,42.93
2023-05-08T11:10:13.444Z,42.90
2023-05-08T11:11:13.214Z,42.85
2023-05-08T11:12:13.171Z,42.81
2023-05-08T11:13:13.286Z,42.80
2023-05-08T11:14:13.143Z,42.75
2023-05-08T11:15:13.174Z,42.75
2023-05-08T11:16:13.184Z,42.67
2023-05-08T11:17:13.169Z,42.71
2023-05-08T11:18:13.171Z,42.65
2023-05-08T11:19:13.142Z,42.64
2023-05-08T11:20:13.428Z,42.64
2023-05-08T11:21:13.135Z,42.63
2023-05-08T11:22:13.136Z,42.59
2023-05-08T11:23:13.138Z,42.60
2023-05-08T11:24:13.108Z,42.57
2023-05-08T11:25:13.085Z,42.49
2023-05-08T11:26:13.103Z,42.51
2023-05-08T11:27:13.130Z,42.47
2023-05-08T11:28:13.142Z,42.46
2023-05-08T11:29:13.190Z,42.47
2023-05-08T11:30:13.295Z,42.41
2023-05-08T11:31:13.317Z,42.42
2023-05-08T11:32:13.283Z,42.40
2023-05-08T11:33:13.318Z,42.37
2023-05-08T11:34:13.717Z,42.39
2023-05-08T11:35:13.350Z,42.34
2023-05-08T11:36:13.401Z,42.31
2023-05-08T11:37:14.159Z,42.31
2023-05-08T11:38:13.485Z,42.28
2023-05-08T11:39:13.803Z,42.28
2023-05-08T11:40:13.803Z,42.25
2023-05-08T11:41:13.570Z,42.18
2023-05-08T11:42:13.645Z,42.18
2023-05-08T11:43:13.649Z,42.20
2023-05-08T11:44:14.822Z,42.20
2023-05-08T11:45:13.748Z,42.21
2023-05-08T11:46:13.772Z,42.21
2023-05-08T11:47:13.991Z,42.18
2023-05-08T11:48:13.890Z,42.17
2023-05-08T11:49:13.899Z,42.17
2023-05-08T11:50:14.465Z,42.16
2023-05-08T11:51:14.030Z,42.16
2023-05-08T11:52:14.050Z,42.14
2023-05-08T11:53:14.098Z,42.12
2023-05-08T11:54:14.176Z,42.06
2023-05-08T11:55:14.224Z,42.08
2023-05-08T11:56:14.262Z,42.10
2023-05-08T11:57:14.306Z,42.04
2023-05-08T11:58:14.332Z,42.02
2023-05-08T11:59:14.478Z,41.98
2023-05-08T12:00:14.836Z,42.00
2023-05-08T12:01:14.514Z,41.97
2023-05-08T12:02:14.562Z,42.03
2023-05-08T12:03:14.693Z,42.03
2023-05-08T12:04:14.736Z,42.00
2023-05-08T12:05:14.757Z,41.97
2023-05-08T12:06:14.744Z,41.90
2023-05-08T12:07:14.770Z,41.90
2023-05-08T12:08:15.734Z,41.89
2023-05-08T12:09:14.933Z,41.84
2023-05-08T12:10:15.485Z,41.79
2023-05-08T12:11:14.994Z,41.78
2023-05-08T12:12:15.050Z,41.75
2023-05-08T12:13:15.144Z,41.71
2023-05-08T12:14:15.151Z,41.73
2023-05-08T12:15:15.364Z,41.67
2023-05-08T12:16:15.278Z,41.68
2023-05-08T12:17:15.399Z,41.69
2023-05-08T12:18:15.436Z,41.69
2023-05-08T12:19:15.435Z,41.65
2023-05-08T12:20:15.966Z,41.64
2023-05-08T12:21:15.537Z,41.63
2023-05-08T12:22:15.639Z,41.65
2023-05-08T12:23:15.682Z,41.62
2023-05-08T12:24:15.747Z,41.60
2023-05-08T12:25:16.096Z,41.59
2023-05-08T12:26:15.880Z,41.60
2023-05-08T12:27:15.913Z,41.56
2023-05-08T12:28:15.977Z,41.59
2023-05-08T12:29:16.064Z,41.53
2023-05-08T12:30:16.852Z,41.52
2023-05-08T12:31:16.258Z,41.49
2023-05-08T12:32:16.253Z,41.50
2023-05-08T12:33:16.362Z,41.48
2023-05-08T12:34:16.366Z,41.49
2023-05-08T12:35:16.481Z,41.47
2023-05-08T12:36:16.517Z,41.44
2023-05-08T12:37:16.564Z,41.43
2023-05-08T12:38:16.642Z,41.42
2023-05-08T12:39:16.729Z,41.40
2023-05-08T12:40:16.753Z,41.38
2023-05-08T12:41:16.800Z,41.34
2023-05-08T12:42:16.867Z,41.35
2023-05-08T12:43:16.973Z,41.29
2023-05-08T12:44:17.008Z,41.31
2023-05-08T12:45:17.037Z,41.28
2023-05-08T12:46:17.224Z,41.29
2023-05-08T12:47:17.171Z,41.27
2023-05-08T12:48:17.265Z,41.25
2023-05-08T12:49:17.680Z,41.24
2023-05-08T12:50:17.372Z,41.21
2023-05-08T12:51:17.455Z,41.19
2023-05-08T12:52:17.499Z,41.22